PWSweather.com
Personal Weather Stations
Station Observations
KNVELKO7
Elko, NV 89801

Elko, NV 89801

Lat: 40.963233, Lon: -115.592836

Elevation: 5230

Station Type: WS-2812

High Low Average
Temperature 43.6°F6.4°F 32.2°F0.1°F 37.2°F2.9°F
Dew Point 40.0°F4.4°F 28.3°F-2.1°F 32.5°F0.3°F
Winds 25.6 mph WSW41.2 mph WSW Calm Calm 7.0 mph 11.3 mph
Wind Gusts 27.3 mph43.9 mph 1.6 mph2.6 mph 9.7 mph15.6 mph
Humidity 90% 67% 83%
Pressure 30.04 in1017.30 in 29.91 in1012.90 in -
Precipitation 7.21 in183.10 in - -
Hour Temp Dew Point Humidity Winds Wind Gusts Pressure Precip Precip Rate Daily Precip Total
12:00 AM 38.5°F3.6°C 29.3°F-1.5°C 69% 4.1 mph WSW6.6 kmh WSW 7.2 mph11.6 kmh 30.04 in1017.3 mb 0.00 in0.0 mm 0.00 in0.0 mm 0.00 in0.0 mm
12:05 AM 38.3°F3.5°C 29.1°F-1.6°C 69% 3.5 mph SW5.6 kmh SW 5.1 mph8.2 kmh 30.03 in1016.9 mb 0.00 in0.0 mm 0.00 in0.0 mm 0.00 in0.0 mm
12:10 AM 38.3°F3.5°C 29.1°F-1.6°C 69% 7.1 mph WSW11.4 kmh WSW 7.2 mph11.6 kmh 30.02 in1016.6 mb 0.00 in0.0 mm 0.00 in0.0 mm 0.00 in0.0 mm
12:15 AM 38.7°F3.7°C 29.3°F-1.5°C 69% 6.3 mph SW10.1 kmh SW 8.9 mph14.3 kmh 30.03 in1016.9 mb 0.00 in0.0 mm 0.00 in0.0 mm 0.00 in0.0 mm
12:20 AM 38.9°F3.8°C 29.5°F-1.4°C 69% 5.1 mph SW8.2 kmh SW 9.4 mph15.1 kmh 30.02 in1016.6 mb 0.00 in0.0 mm 0.00 in0.0 mm 0.00 in0.0 mm
12:25 AM 39.1°F3.9°C 29.4°F-1.4°C 68% 5.6 mph WSW9.0 kmh WSW 9.4 mph15.1 kmh 30.02 in1016.6 mb 0.00 in0.0 mm 0.00 in0.0 mm 0.00 in0.0 mm
12:30 AM 39.1°F3.9°C 29.4°F-1.4°C 68% 3.7 mph NW6.0 kmh NW 6.3 mph10.1 kmh 30.02 in1016.6 mb 0.00 in0.0 mm 0.00 in0.0 mm 0.00 in0.0 mm
12:35 AM 39.1°F3.9°C 29.0°F-1.7°C 67% 3.9 mph SW6.3 kmh SW 6.3 mph10.1 kmh 30.02 in1016.6 mb 0.00 in0.0 mm 0.00 in0.0 mm 0.00 in0.0 mm
12:40 AM 38.9°F3.8°C 29.2°F-1.6°C 68% 6.2 mph WSW10.0 kmh WSW 7.6 mph12.2 kmh 30.02 in1016.6 mb 0.00 in0.0 mm 0.00 in0.0 mm 0.00 in0.0 mm
12:45 AM 38.9°F3.8°C 29.2°F-1.6°C 68% 3.9 mph SSW6.3 kmh SSW 8.9 mph14.3 kmh 30.02 in1016.6 mb 0.00 in0.0 mm 0.00 in0.0 mm 0.00 in0.0 mm
12:50 AM 38.9°F3.8°C 29.2°F-1.6°C 68% 6.1 mph WSW9.8 kmh WSW 8.9 mph14.3 kmh 30.02 in1016.6 mb 0.00 in0.0 mm 0.00 in0.0 mm 0.00 in0.0 mm
12:55 AM 38.7°F3.7°C 29.0°F-1.7°C 68% 5.9 mph WSW9.5 kmh WSW 6.9 mph11.1 kmh 30.02 in1016.6 mb 0.00 in0.0 mm 0.00 in0.0 mm 0.00 in0.0 mm
01:01 AM 38.7°F3.7°C 29.0°F-1.7°C 68% 4.3 mph WSW6.9 kmh WSW 7.4 mph11.9 kmh 30.02 in1016.6 mb 0.00 in0.0 mm 0.00 in0.0 mm 0.00 in0.0 mm
01:06 AM 38.5°F3.6°C 28.8°F-1.8°C 68% 3.5 mph WSW5.6 kmh WSW 7.4 mph11.9 kmh 30.02 in1016.6 mb 0.00 in0.0 mm 0.00 in0.0 mm 0.00 in0.0 mm
01:10 AM 38.5°F3.6°C 28.8°F-1.8°C 68% 3.7 mph WSW6.0 kmh WSW 6.3 mph10.1 kmh 30.02 in1016.6 mb 0.00 in0.0 mm 0.00 in0.0 mm 0.00 in0.0 mm
01:15 AM 38.3°F3.5°C 28.7°F-1.8°C 68% 1.9 mph W3.1 kmh W 5.4 mph8.7 kmh 30.01 in1016.3 mb 0.00 in0.0 mm 0.00 in0.0 mm 0.00 in0.0 mm
01:20 AM 38.2°F3.4°C 28.5°F-1.9°C 68% 2.5 mph E4.0 kmh E 5.4 mph8.7 kmh 30.01 in1016.3 mb 0.00 in0.0 mm 0.00 in0.0 mm 0.00 in0.0 mm
01:25 AM 38.2°F3.4°C 28.5°F-1.9°C 68% 1.4 mph E2.3 kmh E 2.9 mph4.7 kmh 30.00 in1015.9 mb 0.00 in0.0 mm 0.00 in0.0 mm 0.00 in0.0 mm
01:30 AM 38.0°F3.3°C 28.7°F-1.8°C 69% 1.6 mph NE2.6 kmh NE 2.0 mph3.2 kmh 30.00 in1015.9 mb 0.00 in0.0 mm 0.00 in0.0 mm 0.00 in0.0 mm
01:35 AM 37.8°F3.2°C 28.5°F-1.9°C 69% 1.0 mph E1.6 kmh E 3.1 mph5.0 kmh 30.00 in1015.9 mb 0.00 in0.0 mm 0.00 in0.0 mm 0.00 in0.0 mm
01:40 AM 37.8°F3.2°C 28.5°F-1.9°C 69% 2.1 mph NE3.4 kmh NE 4.0 mph6.4 kmh 30.00 in1015.9 mb 0.00 in0.0 mm 0.00 in0.0 mm 0.00 in0.0 mm
01:45 AM 37.6°F3.1°C 28.5°F-1.9°C 69% 4.3 mph NNW6.9 kmh NNW 4.7 mph7.6 kmh 30.00 in1015.9 mb 0.00 in0.0 mm 0.00 in0.0 mm 0.00 in0.0 mm
01:50 AM 37.4°F3.0°C 28.3°F-2.1°C 69% 3.3 mph NNW5.3 kmh NNW 4.7 mph7.6 kmh 30.00 in1015.9 mb 0.00 in0.0 mm 0.00 in0.0 mm 0.00 in0.0 mm
01:55 AM 37.4°F3.0°C 28.6°F-1.9°C 70% 2.8 mph WNW4.5 kmh WNW 4.0 mph6.4 kmh 30.00 in1015.9 mb 0.00 in0.0 mm 0.00 in0.0 mm 0.00 in0.0 mm
02:01 AM 37.3°F2.9°C 28.4°F-2.0°C 70% 4.1 mph 6.6 kmh 4.5 mph7.2 kmh 29.99 in1015.6 mb 0.00 in0.0 mm 0.00 in0.0 mm 0.00 in0.0 mm
02:06 AM 37.3°F2.9°C 28.4°F-2.0°C 70% 1.7 mph SW2.7 kmh SW 4.5 mph7.2 kmh 30.00 in1015.9 mb 0.00 in0.0 mm 0.00 in0.0 mm 0.00 in0.0 mm
02:11 AM 37.3°F2.9°C 28.8°F-1.8°C 71% 15.8 mph WSW25.4 kmh WSW 23.3 mph37.5 kmh 29.99 in1015.6 mb 0.00 in0.0 mm 0.00 in0.0 mm 0.00 in0.0 mm
02:16 AM 38.7°F3.7°C 30.1°F-1.1°C 71% 10.0 mph SW16.1 kmh SW 23.3 mph37.5 kmh 30.00 in1015.9 mb 0.00 in0.0 mm 0.00 in0.0 mm 0.00 in0.0 mm
02:21 AM 39.6°F4.2°C 29.9°F-1.2°C 68% 14.3 mph S23.0 kmh S 16.1 mph25.9 kmh 29.99 in1015.6 mb 0.00 in0.0 mm 0.00 in0.0 mm 0.00 in0.0 mm
02:26 AM 40.3°F4.6°C 30.6°F-0.8°C 68% 6.1 mph SW9.8 kmh SW 16.1 mph25.9 kmh 30.00 in1015.9 mb 0.00 in0.0 mm 0.00 in0.0 mm 0.00 in0.0 mm
02:31 AM 40.1°F4.5°C 30.0°F-1.1°C 67% 5.8 mph WSW9.3 kmh WSW 11.0 mph17.7 kmh 30.00 in1015.9 mb 0.00 in0.0 mm 0.00 in0.0 mm 0.00 in0.0 mm
02:36 AM 40.0°F4.4°C 29.8°F-1.2°C 67% 8.5 mph WSW13.7 kmh WSW 8.9 mph14.3 kmh 30.00 in1015.9 mb 0.00 in0.0 mm 0.00 in0.0 mm 0.00 in0.0 mm
02:40 AM 40.0°F4.4°C 29.8°F-1.2°C 67% 9.1 mph SW14.6 kmh SW 15.2 mph24.5 kmh 30.01 in1016.3 mb 0.00 in0.0 mm 0.00 in0.0 mm 0.00 in0.0 mm
02:45 AM 39.6°F4.2°C 29.4°F-1.4°C 67% 5.6 mph WSW9.0 kmh WSW 15.2 mph24.5 kmh 30.01 in1016.3 mb 0.00 in0.0 mm 0.00 in0.0 mm 0.00 in0.0 mm
02:50 AM 39.1°F3.9°C 29.0°F-1.7°C 67% 4.7 mph SW7.6 kmh SW 7.2 mph11.6 kmh 30.01 in1016.3 mb 0.00 in0.0 mm 0.00 in0.0 mm 0.00 in0.0 mm
02:55 AM 39.1°F3.9°C 29.4°F-1.4°C 68% 4.7 mph SW7.6 kmh SW 7.4 mph11.9 kmh 30.01 in1016.3 mb 0.00 in0.0 mm 0.00 in0.0 mm 0.00 in0.0 mm
03:01 AM 38.9°F3.8°C 29.5°F-1.4°C 69% 6.0 mph SSW9.7 kmh SSW 7.4 mph11.9 kmh 30.01 in1016.3 mb 0.00 in0.0 mm 0.00 in0.0 mm 0.00 in0.0 mm
03:06 AM 38.7°F3.7°C 29.8°F-1.2°C 70% 9.1 mph S14.6 kmh S 9.8 mph15.8 kmh 30.01 in1016.3 mb 0.01 in0.3 mm 0.12 in3.0 mm 0.01 in0.3 mm
03:11 AM 38.9°F3.8°C 29.9°F-1.2°C 70% 7.6 mph SW12.2 kmh SW 9.8 mph15.8 kmh 30.01 in1016.3 mb 0.01 in0.3 mm 0.00 in0.0 mm 0.01 in0.3 mm
03:16 AM 38.9°F3.8°C 30.2°F-1.0°C 71% 6.1 mph SW9.8 kmh SW 9.6 mph15.4 kmh 30.00 in1015.9 mb 0.02 in0.5 mm 0.12 in3.0 mm 0.02 in0.5 mm
03:21 AM 38.7°F3.7°C 30.4°F-0.9°C 72% 5.7 mph SW9.2 kmh SW 7.6 mph12.2 kmh 30.00 in1015.9 mb 0.02 in0.5 mm 0.00 in0.0 mm 0.02 in0.5 mm
03:26 AM 38.5°F3.6°C 30.6°F-0.8°C 73% 4.4 mph SW7.1 kmh SW 6.9 mph11.1 kmh 30.00 in1015.9 mb 0.02 in0.5 mm 0.00 in0.0 mm 0.02 in0.5 mm
03:31 AM 38.5°F3.6°C 30.6°F-0.8°C 73% 5.3 mph SW8.5 kmh SW 6.9 mph11.1 kmh 30.00 in1015.9 mb 0.02 in0.5 mm 0.00 in0.0 mm 0.02 in0.5 mm
03:36 AM 38.3°F3.5°C 30.4°F-0.9°C 73% 7.0 mph SW11.3 kmh SW 8.9 mph14.3 kmh 30.00 in1015.9 mb 0.02 in0.5 mm 0.00 in0.0 mm 0.02 in0.5 mm
03:41 AM 38.5°F3.6°C 31.0°F-0.6°C 74% 11.2 mph SW18.0 kmh SW 14.3 mph23.0 kmh 30.00 in1015.9 mb 0.02 in0.5 mm 0.00 in0.0 mm 0.02 in0.5 mm
03:46 AM 38.5°F3.6°C 31.6°F-0.2°C 76% 9.1 mph SW14.6 kmh SW 14.3 mph23.0 kmh 29.99 in1015.6 mb 0.02 in0.5 mm 0.00 in0.0 mm 0.02 in0.5 mm
03:51 AM 38.5°F3.6°C 31.6°F-0.2°C 76% 7.8 mph SW12.6 kmh SW 10.5 mph16.9 kmh 30.00 in1015.9 mb 0.04 in1.0 mm 0.24 in6.1 mm 0.04 in1.0 mm
03:56 AM 38.5°F3.6°C 32.0°F0.0°C 77% 6.3 mph SW10.1 kmh SW 9.2 mph14.8 kmh 29.99 in1015.6 mb 0.04 in1.0 mm 0.00 in0.0 mm 0.04 in1.0 mm
04:01 AM 38.3°F3.5°C 31.4°F-0.3°C 76% 4.3 mph SW6.9 kmh SW 8.5 mph13.7 kmh 29.99 in1015.6 mb 0.04 in1.0 mm 0.00 in0.0 mm 0.04 in1.0 mm
04:06 AM 38.2°F3.4°C 31.2°F-0.4°C 76% 3.6 mph SW5.8 kmh SW 7.6 mph12.2 kmh 29.99 in1015.6 mb 0.05 in1.3 mm 0.12 in3.0 mm 0.06 in1.5 mm
04:11 AM 38.0°F3.3°C 31.4°F-0.3°C 77% 4.4 mph SW7.1 kmh SW 6.0 mph9.7 kmh 29.98 in1015.2 mb 0.05 in1.3 mm 0.00 in0.0 mm 0.06 in1.5 mm
04:16 AM 37.8°F3.2°C 31.2°F-0.4°C 77% 3.4 mph SSW5.5 kmh SSW 6.0 mph9.7 kmh 29.98 in1015.2 mb 0.05 in1.3 mm 0.00 in0.0 mm 0.07 in1.8 mm
04:21 AM 37.8°F3.2°C 31.6°F-0.2°C 78% 2.3 mph SSW3.7 kmh SSW 4.3 mph6.9 kmh 29.98 in1015.2 mb 0.05 in1.3 mm 0.00 in0.0 mm 0.07 in1.8 mm
04:26 AM 37.6°F3.1°C 31.4°F-0.3°C 78% 1.9 mph SSW3.1 kmh SSW 4.3 mph6.9 kmh 29.98 in1015.2 mb 0.06 in1.5 mm 0.12 in3.0 mm 0.08 in2.0 mm
04:31 AM 37.4°F3.0°C 31.2°F-0.4°C 78% 1.1 mph SW1.8 kmh SW 2.7 mph4.3 kmh 29.98 in1015.2 mb 0.06 in1.5 mm 0.00 in0.0 mm 0.08 in2.0 mm
04:36 AM 37.4°F3.0°C 31.2°F-0.4°C 78% 1.6 mph SSW2.6 kmh SSW 2.0 mph3.2 kmh 29.98 in1015.2 mb 0.07 in1.8 mm 0.12 in3.0 mm 0.09 in2.3 mm
04:41 AM 37.3°F2.9°C 31.3°F-0.4°C 79% 2.0 mph SE3.2 kmh SE 2.2 mph3.5 kmh 29.97 in1014.9 mb 0.07 in1.8 mm 0.00 in0.0 mm 0.09 in2.3 mm
04:46 AM 37.3°F2.9°C 31.3°F-0.4°C 79% 3.8 mph SE6.1 kmh SE 4.9 mph7.9 kmh 29.97 in1014.9 mb 0.08 in2.0 mm 0.12 in3.0 mm 0.10 in2.5 mm
04:51 AM 37.3°F2.9°C 31.3°F-0.4°C 79% 1.7 mph SSE2.7 kmh SSE 4.9 mph7.9 kmh 29.97 in1014.9 mb 0.06 in1.5 mm 0.00 in0.0 mm 0.10 in2.5 mm
04:56 AM 37.3°F2.9°C 31.7°F-0.2°C 80% 2.1 mph SE3.4 kmh SE 2.5 mph4.0 kmh 29.97 in1014.9 mb 0.07 in1.8 mm 0.12 in3.0 mm 0.11 in2.8 mm
05:01 AM 37.3°F2.9°C 31.7°F-0.2°C 80% 4.2 mph SW6.8 kmh SW 5.1 mph8.2 kmh 29.97 in1014.9 mb 0.07 in1.8 mm 0.00 in0.0 mm 0.11 in2.8 mm
05:06 AM 37.4°F3.0°C 31.9°F-0.1°C 80% 8.3 mph S13.4 kmh S 9.2 mph14.8 kmh 29.97 in1014.9 mb 0.06 in1.5 mm 0.00 in0.0 mm 0.12 in3.0 mm
05:11 AM 37.3°F2.9°C 32.0°F0.0°C 81% 6.3 mph S10.1 kmh S 9.2 mph14.8 kmh 29.97 in1014.9 mb 0.06 in1.5 mm 0.00 in0.0 mm 0.12 in3.0 mm
05:16 AM 37.3°F2.9°C 32.2°F0.1°C 82% 6.9 mph S11.1 kmh S 8.5 mph13.7 kmh 29.97 in1014.9 mb 0.05 in1.3 mm 0.00 in0.0 mm 0.12 in3.0 mm
05:21 AM 37.1°F2.8°C 32.0°F0.0°C 82% 9.5 mph S15.3 kmh S 9.8 mph15.8 kmh 29.97 in1014.9 mb 0.05 in1.3 mm 0.00 in0.0 mm 0.13 in3.3 mm
05:26 AM 37.1°F2.8°C 32.0°F0.0°C 82% 11.9 mph S19.2 kmh S 12.3 mph19.8 kmh 29.97 in1014.9 mb 0.05 in1.3 mm 0.00 in0.0 mm 0.13 in3.3 mm
05:31 AM 37.1°F2.8°C 32.4°F0.2°C 83% 11.2 mph S18.0 kmh S 12.3 mph19.8 kmh 29.97 in1014.9 mb 0.04 in1.0 mm 0.00 in0.0 mm 0.13 in3.3 mm
05:36 AM 36.9°F2.7°C 32.5°F0.3°C 84% 11.2 mph S18.0 kmh S 15.7 mph25.3 kmh 29.97 in1014.9 mb 0.05 in1.3 mm 0.12 in3.0 mm 0.14 in3.6 mm
05:41 AM 36.9°F2.7°C 32.5°F0.3°C 84% 10.0 mph S16.1 kmh S 15.7 mph25.3 kmh 29.97 in1014.9 mb 0.05 in1.3 mm 0.00 in0.0 mm 0.14 in3.6 mm
05:46 AM 36.9°F2.7°C 32.2°F0.1°C 83% 8.6 mph SSW13.8 kmh SSW 12.1 mph19.5 kmh 29.97 in1014.9 mb 0.04 in1.0 mm 0.00 in0.0 mm 0.14 in3.6 mm
05:51 AM 36.7°F2.6°C 32.3°F0.2°C 84% 9.2 mph S14.8 kmh S 9.6 mph15.4 kmh 29.97 in1014.9 mb 0.05 in1.3 mm 0.12 in3.0 mm 0.15 in3.8 mm
05:56 AM 36.7°F2.6°C 32.1°F0.1°C 83% 8.4 mph S13.5 kmh S 9.6 mph15.4 kmh 29.97 in1014.9 mb 0.04 in1.0 mm 0.00 in0.0 mm 0.15 in3.8 mm
06:02 AM 36.7°F2.6°C 32.1°F0.1°C 83% 7.2 mph SSW11.6 kmh SSW 9.2 mph14.8 kmh 29.97 in1014.9 mb 0.05 in1.3 mm 0.01 in0.3 mm 0.16 in4.1 mm
06:07 AM 36.7°F2.6°C 32.1°F0.1°C 83% 6.6 mph SSW10.6 kmh SSW 8.7 mph14.0 kmh 29.97 in1014.9 mb 0.04 in1.0 mm 0.00 in0.0 mm 0.16 in4.1 mm
06:12 AM 36.5°F2.5°C 32.1°F0.1°C 84% 9.9 mph SW15.9 kmh SW 11.4 mph18.3 kmh 29.97 in1014.9 mb 0.05 in1.3 mm 0.12 in3.0 mm 0.17 in4.3 mm
06:17 AM 36.7°F2.6°C 32.1°F0.1°C 83% 3.6 mph SSW5.8 kmh SSW 11.4 mph18.3 kmh 29.96 in1014.6 mb 0.05 in1.3 mm 0.00 in0.0 mm 0.17 in4.3 mm
06:22 AM 36.7°F2.6°C 32.1°F0.1°C 83% 6.1 mph SSW9.8 kmh SSW 6.9 mph11.1 kmh 29.96 in1014.6 mb 0.05 in1.3 mm 0.00 in0.0 mm 0.18 in4.6 mm
06:27 AM 36.7°F2.6°C 32.3°F0.2°C 84% 9.7 mph SW15.6 kmh SW 10.7 mph17.2 kmh 29.96 in1014.6 mb 0.05 in1.3 mm 0.00 in0.0 mm 0.18 in4.6 mm
06:32 AM 36.7°F2.6°C 32.3°F0.2°C 84% 6.9 mph SW11.1 kmh SW 12.8 mph20.6 kmh 29.96 in1014.6 mb 0.05 in1.3 mm 0.00 in0.0 mm 0.18 in4.6 mm
06:36 AM 36.7°F2.6°C 32.3°F0.2°C 84% 10.6 mph SSW17.1 kmh SSW 12.8 mph20.6 kmh 29.96 in1014.6 mb 0.04 in1.0 mm 0.00 in0.0 mm 0.18 in4.6 mm
06:41 AM 36.7°F2.6°C 32.3°F0.2°C 84% 7.6 mph S12.2 kmh S 11.4 mph18.3 kmh 29.96 in1014.6 mb 0.05 in1.3 mm 0.12 in3.0 mm 0.19 in4.8 mm
06:46 AM 36.9°F2.7°C 32.5°F0.3°C 84% 4.9 mph SW7.9 kmh SW 11.4 mph18.3 kmh 29.96 in1014.6 mb 0.04 in1.0 mm 0.00 in0.0 mm 0.19 in4.8 mm
06:51 AM 36.9°F2.7°C 32.2°F0.1°C 83% 5.0 mph SW8.0 kmh SW 8.7 mph14.0 kmh 29.96 in1014.6 mb 0.05 in1.3 mm 0.12 in3.0 mm 0.20 in5.1 mm
06:56 AM 36.7°F2.6°C 32.1°F0.1°C 83% 2.6 mph WSW4.2 kmh WSW 6.3 mph10.1 kmh 29.96 in1014.6 mb 0.04 in1.0 mm 0.00 in0.0 mm 0.20 in5.1 mm
07:02 AM 36.7°F2.6°C 32.1°F0.1°C 83% 1.0 mph WSW1.6 kmh WSW 3.6 mph5.8 kmh 29.96 in1014.6 mb 0.05 in1.3 mm 0.01 in0.3 mm 0.21 in5.3 mm
07:07 AM 36.5°F2.5°C 31.9°F-0.1°C 83% 0.4 mph WSW0.6 kmh WSW 3.6 mph5.8 kmh 29.96 in1014.6 mb 0.04 in1.0 mm 0.00 in0.0 mm 0.21 in5.3 mm
07:12 AM 36.4°F2.4°C 31.7°F-0.2°C 83% 0.8 mph WSW1.3 kmh WSW 2.5 mph4.0 kmh 29.96 in1014.6 mb 0.05 in1.3 mm 0.12 in3.0 mm 0.22 in5.6 mm
07:17 AM 36.4°F2.4°C 31.7°F-0.2°C 83% 1.8 mph SSW2.9 kmh SSW 1.8 mph2.9 kmh 29.96 in1014.6 mb 0.05 in1.3 mm 0.00 in0.0 mm 0.22 in5.6 mm
07:22 AM 36.4°F2.4°C 31.7°F-0.2°C 83% 1.6 mph SW2.6 kmh SW 2.5 mph4.0 kmh 29.97 in1014.9 mb 0.05 in1.3 mm 0.00 in0.0 mm 0.23 in5.8 mm
07:27 AM 36.2°F2.3°C 31.1°F-0.5°C 82% 5.4 mph SW8.7 kmh SW 5.8 mph9.3 kmh 29.97 in1014.9 mb 0.05 in1.3 mm 0.00 in0.0 mm 0.23 in5.8 mm
07:32 AM 36.2°F2.3°C 31.1°F-0.5°C 82% 4.0 mph SW6.4 kmh SW 6.9 mph11.1 kmh 29.97 in1014.9 mb 0.05 in1.3 mm 0.00 in0.0 mm 0.23 in5.8 mm
07:37 AM 36.2°F2.3°C 31.1°F-0.5°C 82% 3.2 mph SW5.1 kmh SW 6.9 mph11.1 kmh 29.97 in1014.9 mb 0.05 in1.3 mm 0.00 in0.0 mm 0.24 in6.1 mm
07:42 AM 36.2°F2.3°C 31.1°F-0.5°C 82% 5.2 mph SW8.4 kmh SW 7.4 mph11.9 kmh 29.97 in1014.9 mb 0.05 in1.3 mm 0.00 in0.0 mm 0.24 in6.1 mm
07:47 AM 36.4°F2.4°C 31.7°F-0.2°C 83% 6.1 mph SW9.8 kmh SW 8.1 mph13.0 kmh 29.97 in1014.9 mb 0.05 in1.3 mm 0.00 in0.0 mm 0.25 in6.4 mm
07:52 AM 36.4°F2.4°C 31.7°F-0.2°C 83% 5.8 mph SW9.3 kmh SW 8.1 mph13.0 kmh 29.97 in1014.9 mb 0.05 in1.3 mm 0.00 in0.0 mm 0.25 in6.4 mm
07:57 AM 36.4°F2.4°C 32.0°F0.0°C 84% 5.4 mph SW8.7 kmh SW 7.6 mph12.2 kmh 29.97 in1014.9 mb 0.04 in1.0 mm 0.00 in0.0 mm 0.25 in6.4 mm
08:02 AM 36.4°F2.4°C 32.0°F0.0°C 84% 6.9 mph WSW11.1 kmh WSW 8.5 mph13.7 kmh 29.97 in1014.9 mb 0.05 in1.3 mm 0.01 in0.3 mm 0.26 in6.6 mm
08:07 AM 36.4°F2.4°C 32.0°F0.0°C 84% 6.4 mph SW10.3 kmh SW 8.5 mph13.7 kmh 29.97 in1014.9 mb 0.05 in1.3 mm 0.00 in0.0 mm 0.26 in6.6 mm
08:12 AM 36.4°F2.4°C 32.0°F0.0°C 84% 6.5 mph SW10.5 kmh SW 9.4 mph15.1 kmh 29.97 in1014.9 mb 0.05 in1.3 mm 0.00 in0.0 mm 0.27 in6.9 mm
08:17 AM 36.4°F2.4°C 32.0°F0.0°C 84% 5.6 mph SW9.0 kmh SW 9.4 mph15.1 kmh 29.97 in1014.9 mb 0.05 in1.3 mm 0.00 in0.0 mm 0.27 in6.9 mm
08:22 AM 36.4°F2.4°C 32.2°F0.1°C 85% 5.9 mph WSW9.5 kmh WSW 6.9 mph11.1 kmh 29.97 in1014.9 mb 0.05 in1.3 mm 0.00 in0.0 mm 0.28 in7.1 mm
08:27 AM 36.4°F2.4°C 32.2°F0.1°C 85% 4.0 mph SW6.4 kmh SW 6.3 mph10.1 kmh 29.97 in1014.9 mb 0.05 in1.3 mm 0.00 in0.0 mm 0.28 in7.1 mm
08:32 AM 36.5°F2.5°C 32.4°F0.2°C 85% 4.5 mph W7.2 kmh W 5.4 mph8.7 kmh 29.97 in1014.9 mb 0.04 in1.0 mm 0.00 in0.0 mm 0.28 in7.1 mm
08:37 AM 36.5°F2.5°C 32.4°F0.2°C 85% 4.4 mph SW7.1 kmh SW 5.4 mph8.7 kmh 29.97 in1014.9 mb 0.05 in1.3 mm 0.12 in3.0 mm 0.29 in7.4 mm
08:42 AM 36.5°F2.5°C 32.4°F0.2°C 85% 3.5 mph SW5.6 kmh SW 5.1 mph8.2 kmh 29.97 in1014.9 mb 0.05 in1.3 mm 0.00 in0.0 mm 0.29 in7.4 mm
08:47 AM 36.7°F2.6°C 32.9°F0.5°C 86% 5.1 mph SW8.2 kmh SW 5.4 mph8.7 kmh 29.97 in1014.9 mb 0.04 in1.0 mm 0.00 in0.0 mm 0.29 in7.4 mm
08:52 AM 36.7°F2.6°C 32.9°F0.5°C 86% 3.3 mph SW5.3 kmh SW 5.4 mph8.7 kmh 29.97 in1014.9 mb 0.05 in1.3 mm 0.12 in3.0 mm 0.30 in7.6 mm
08:57 AM 37.1°F2.8°C 33.2°F0.7°C 86% 4.2 mph SSW6.8 kmh SSW 5.4 mph8.7 kmh 29.97 in1014.9 mb 0.04 in1.0 mm 0.00 in0.0 mm 0.30 in7.6 mm
09:02 AM 37.3°F2.9°C 33.4°F0.8°C 86% 2.3 mph SW3.7 kmh SW 5.4 mph8.7 kmh 29.97 in1014.9 mb 0.04 in1.0 mm 0.00 in0.0 mm 0.30 in7.6 mm
09:07 AM 37.4°F3.0°C 33.6°F0.9°C 86% 3.7 mph SW6.0 kmh SW 5.4 mph8.7 kmh 29.97 in1014.9 mb 0.04 in1.0 mm 0.00 in0.0 mm 0.30 in7.6 mm
09:12 AM 38.0°F3.3°C 34.1°F1.2°C 86% 9.1 mph SW14.6 kmh SW 10.7 mph17.2 kmh 29.97 in1014.9 mb 0.03 in0.8 mm 0.00 in0.0 mm 0.30 in7.6 mm
09:17 AM 38.7°F3.7°C 35.1°F1.7°C 87% 9.5 mph SW15.3 kmh SW 10.7 mph17.2 kmh 29.97 in1014.9 mb 0.03 in0.8 mm 0.00 in0.0 mm 0.30 in7.6 mm
09:22 AM 39.4°F4.1°C 35.8°F2.1°C 87% 11.0 mph SW17.7 kmh SW 13.4 mph21.6 kmh 29.97 in1014.9 mb 0.02 in0.5 mm 0.00 in0.0 mm 0.30 in7.6 mm
09:27 AM 40.0°F4.4°C 36.4°F2.4°C 87% 12.2 mph SW19.6 kmh SW 16.3 mph26.2 kmh 29.97 in1014.9 mb 0.02 in0.5 mm 0.00 in0.0 mm 0.30 in7.6 mm
09:32 AM 40.1°F4.5°C 36.8°F2.7°C 88% 17.8 mph SW28.6 kmh SW 19.9 mph32.0 kmh 29.97 in1014.9 mb 0.02 in0.5 mm 0.00 in0.0 mm 0.31 in7.9 mm
09:37 AM 40.5°F4.7°C 37.2°F2.9°C 88% 11.1 mph SSW17.9 kmh SSW 19.9 mph32.0 kmh 29.97 in1014.9 mb 0.02 in0.5 mm 0.00 in0.0 mm 0.31 in7.9 mm
09:42 AM 40.7°F4.8°C 37.4°F3.0°C 88% 16.0 mph SW25.7 kmh SW 17.2 mph27.7 kmh 29.97 in1014.9 mb 0.02 in0.5 mm 0.00 in0.0 mm 0.31 in7.9 mm
09:47 AM 40.7°F4.8°C 37.4°F3.0°C 88% 10.3 mph SW16.6 kmh SW 16.3 mph26.2 kmh 29.97 in1014.9 mb 0.02 in0.5 mm 0.00 in0.0 mm 0.31 in7.9 mm
09:52 AM 41.0°F5.0°C 37.7°F3.2°C 88% 11.0 mph SW17.7 kmh SW 13.0 mph20.9 kmh 29.97 in1014.9 mb 0.01 in0.3 mm 0.00 in0.0 mm 0.31 in7.9 mm
09:57 AM 41.2°F5.1°C 37.6°F3.1°C 87% 9.9 mph SW15.9 kmh SW 13.6 mph21.9 kmh 29.97 in1014.9 mb 0.01 in0.3 mm 0.00 in0.0 mm 0.31 in7.9 mm
10:03 AM 41.4°F5.2°C 37.8°F3.2°C 87% 11.1 mph SW17.9 kmh SW 13.6 mph21.9 kmh 29.96 in1014.6 mb 0.01 in0.3 mm 0.00 in0.0 mm 0.31 in7.9 mm
10:08 AM 41.6°F5.3°C 38.0°F3.3°C 87% 14.4 mph SSW23.2 kmh SSW 15.2 mph24.5 kmh 29.96 in1014.6 mb 0.01 in0.3 mm 0.00 in0.0 mm 0.31 in7.9 mm
10:13 AM 41.8°F5.4°C 38.2°F3.4°C 87% 19.4 mph SW31.2 kmh SW 21.7 mph34.9 kmh 29.96 in1014.6 mb 0.01 in0.3 mm 0.00 in0.0 mm 0.31 in7.9 mm
10:18 AM 41.9°F5.5°C 38.4°F3.6°C 87% 16.0 mph S25.7 kmh S 21.7 mph34.9 kmh 29.96 in1014.6 mb 0.01 in0.3 mm 0.00 in0.0 mm 0.31 in7.9 mm
10:23 AM 42.1°F5.6°C 38.5°F3.6°C 87% 11.0 mph SW17.7 kmh SW 20.4 mph32.8 kmh 29.96 in1014.6 mb 0.01 in0.3 mm 0.00 in0.0 mm 0.31 in7.9 mm
10:27 AM 42.3°F5.7°C 38.7°F3.7°C 87% 14.2 mph WSW22.9 kmh WSW 18.6 mph29.9 kmh 29.95 in1014.2 mb 0.01 in0.3 mm 0.00 in0.0 mm 0.31 in7.9 mm
10:32 AM 42.3°F5.7°C 38.7°F3.7°C 87% 15.2 mph SW24.5 kmh SW 20.1 mph32.3 kmh 29.95 in1014.2 mb 0.00 in0.0 mm 0.00 in0.0 mm 0.31 in7.9 mm
10:37 AM 42.5°F5.8°C 38.9°F3.8°C 87% 11.0 mph S17.7 kmh S 20.1 mph32.3 kmh 29.95 in1014.2 mb 0.00 in0.0 mm 0.00 in0.0 mm 0.31 in7.9 mm
10:42 AM 42.7°F5.9°C 38.7°F3.7°C 86% 10.1 mph SW16.3 kmh SW 17.7 mph28.5 kmh 29.95 in1014.2 mb 0.00 in0.0 mm 0.00 in0.0 mm 0.31 in7.9 mm
10:47 AM 42.7°F5.9°C 38.7°F3.7°C 86% 13.5 mph SW21.7 kmh SW 15.4 mph24.8 kmh 29.95 in1014.2 mb 0.00 in0.0 mm 0.00 in0.0 mm 0.31 in7.9 mm
10:52 AM 42.8°F6.0°C 38.9°F3.8°C 86% 11.4 mph SW18.3 kmh SW 15.7 mph25.3 kmh 29.94 in1013.9 mb 0.00 in0.0 mm 0.00 in0.0 mm 0.31 in7.9 mm
10:57 AM 42.8°F6.0°C 38.9°F3.8°C 86% 11.3 mph SW18.2 kmh SW 15.7 mph25.3 kmh 29.94 in1013.9 mb 0.00 in0.0 mm 0.00 in0.0 mm 0.31 in7.9 mm
11:03 AM 42.8°F6.0°C 38.9°F3.8°C 86% 11.8 mph SW19.0 kmh SW 15.7 mph25.3 kmh 29.94 in1013.9 mb 0.00 in0.0 mm 0.00 in0.0 mm 0.31 in7.9 mm
11:08 AM 42.8°F6.0°C 38.9°F3.8°C 86% 16.5 mph SSW26.6 kmh SSW 20.1 mph32.3 kmh 29.93 in1013.5 mb 0.00 in0.0 mm 0.00 in0.0 mm 0.31 in7.9 mm
11:13 AM 43.0°F6.1°C 39.1°F3.9°C 86% 17.5 mph SW28.2 kmh SW 20.6 mph33.2 kmh 29.93 in1013.5 mb 0.00 in0.0 mm 0.00 in0.0 mm 0.31 in7.9 mm
11:18 AM 43.2°F6.2°C 39.2°F4.0°C 86% 15.7 mph SW25.3 kmh SW 20.6 mph33.2 kmh 29.94 in1013.9 mb 0.00 in0.0 mm 0.00 in0.0 mm 0.31 in7.9 mm
11:23 AM 43.4°F6.3°C 39.8°F4.3°C 87% 14.5 mph WSW23.3 kmh WSW 17.9 mph28.8 kmh 29.93 in1013.5 mb 0.00 in0.0 mm 0.00 in0.0 mm 0.31 in7.9 mm
11:28 AM 43.4°F6.3°C 39.8°F4.3°C 87% 11.8 mph SW19.0 kmh SW 17.4 mph28.0 kmh 29.93 in1013.5 mb 0.00 in0.0 mm 0.00 in0.0 mm 0.31 in7.9 mm
11:33 AM 43.6°F6.4°C 40.0°F4.4°C 87% 10.5 mph SW16.9 kmh SW 17.9 mph28.8 kmh 29.94 in1013.9 mb 0.00 in0.0 mm 0.00 in0.0 mm 0.31 in7.9 mm
11:38 AM 43.4°F6.3°C 39.8°F4.3°C 87% 18.4 mph SW29.6 kmh SW 21.3 mph34.3 kmh 29.93 in1013.5 mb 0.01 in0.3 mm 0.12 in3.0 mm 0.32 in8.1 mm
11:43 AM 43.6°F6.4°C 40.0°F4.4°C 87% 15.5 mph SW24.9 kmh SW 21.3 mph34.3 kmh 29.93 in1013.5 mb 0.01 in0.3 mm 0.00 in0.0 mm 0.32 in8.1 mm
11:48 AM 43.6°F6.4°C 40.0°F4.4°C 87% 16.6 mph SW26.7 kmh SW 21.7 mph34.9 kmh 29.93 in1013.5 mb 0.01 in0.3 mm 0.00 in0.0 mm 0.32 in8.1 mm
11:53 AM 43.6°F6.4°C 40.0°F4.4°C 87% 22.7 mph SW36.5 kmh SW 24.4 mph39.3 kmh 29.93 in1013.5 mb 0.01 in0.3 mm 0.00 in0.0 mm 0.32 in8.1 mm
11:58 AM 43.2°F6.2°C 39.2°F4.0°C 86% 25.6 mph WSW41.2 kmh WSW 25.9 mph41.7 kmh 29.92 in1013.2 mb 0.01 in0.3 mm 0.00 in0.0 mm 0.32 in8.1 mm
12:03 PM 43.2°F6.2°C 39.2°F4.0°C 86% 22.2 mph SW35.7 kmh SW 27.3 mph43.9 kmh 29.92 in1013.2 mb 0.01 in0.3 mm 0.00 in0.0 mm 0.32 in8.1 mm
12:08 PM 43.0°F6.1°C 39.1°F3.9°C 86% 19.5 mph S31.4 kmh S 27.3 mph43.9 kmh 29.92 in1013.2 mb 0.01 in0.3 mm 0.00 in0.0 mm 0.32 in8.1 mm
12:13 PM 42.8°F6.0°C 38.9°F3.8°C 86% 15.8 mph S25.4 kmh S 24.6 mph39.6 kmh 29.93 in1013.5 mb 0.02 in0.5 mm 0.12 in3.0 mm 0.33 in8.4 mm
12:18 PM 42.8°F6.0°C 38.9°F3.8°C 86% 15.5 mph SW24.9 kmh SW 21.0 mph33.8 kmh 29.93 in1013.5 mb 0.02 in0.5 mm 0.00 in0.0 mm 0.33 in8.4 mm
12:23 PM 42.7°F5.9°C 38.7°F3.7°C 86% 20.0 mph SW32.2 kmh SW 21.5 mph34.6 kmh 29.93 in1013.5 mb 0.02 in0.5 mm 0.00 in0.0 mm 0.33 in8.4 mm
12:28 PM 42.8°F6.0°C 38.9°F3.8°C 86% 13.8 mph SW22.2 kmh SW 21.5 mph34.6 kmh 29.92 in1013.2 mb 0.02 in0.5 mm 0.00 in0.0 mm 0.33 in8.4 mm
12:33 PM 42.8°F6.0°C 38.9°F3.8°C 86% 10.5 mph SW16.9 kmh SW 16.6 mph26.7 kmh 29.92 in1013.2 mb 0.03 in0.8 mm 0.12 in3.0 mm 0.34 in8.6 mm
12:38 PM 42.7°F5.9°C 38.7°F3.7°C 86% 12.2 mph SW19.6 kmh SW 16.6 mph26.7 kmh 29.92 in1013.2 mb 0.02 in0.5 mm 0.00 in0.0 mm 0.34 in8.6 mm
12:43 PM 42.5°F5.8°C 38.5°F3.6°C 86% 12.4 mph SW20.0 kmh SW 16.3 mph26.2 kmh 29.92 in1013.2 mb 0.02 in0.5 mm 0.00 in0.0 mm 0.34 in8.6 mm
12:48 PM 42.5°F5.8°C 38.5°F3.6°C 86% 12.1 mph SW19.5 kmh SW 17.9 mph28.8 kmh 29.92 in1013.2 mb 0.02 in0.5 mm 0.00 in0.0 mm 0.34 in8.6 mm
12:53 PM 42.5°F5.8°C 38.5°F3.6°C 86% 10.6 mph SW17.1 kmh SW 17.9 mph28.8 kmh 29.92 in1013.2 mb 0.02 in0.5 mm 0.00 in0.0 mm 0.34 in8.6 mm
12:58 PM 42.5°F5.8°C 38.5°F3.6°C 86% 11.1 mph SW17.9 kmh SW 17.2 mph27.7 kmh 29.91 in1012.9 mb 0.03 in0.8 mm 0.12 in3.0 mm 0.35 in8.9 mm
01:03 PM 42.5°F5.8°C 38.5°F3.6°C 86% 11.9 mph SW19.2 kmh SW 17.2 mph27.7 kmh 29.92 in1013.2 mb 0.03 in0.8 mm 0.00 in0.0 mm 0.35 in8.9 mm
01:08 PM 42.5°F5.8°C 38.5°F3.6°C 86% 12.5 mph SW20.1 kmh SW 16.3 mph26.2 kmh 29.92 in1013.2 mb 0.02 in0.5 mm 0.00 in0.0 mm 0.35 in8.9 mm
01:13 PM 42.5°F5.8°C 38.5°F3.6°C 86% 11.8 mph SW19.0 kmh SW 16.3 mph26.2 kmh 29.92 in1013.2 mb 0.02 in0.5 mm 0.00 in0.0 mm 0.35 in8.9 mm
01:18 PM 42.5°F5.8°C 38.5°F3.6°C 86% 7.9 mph SW12.7 kmh SW 14.1 mph22.7 kmh 29.92 in1013.2 mb 0.02 in0.5 mm 0.00 in0.0 mm 0.35 in8.9 mm
01:23 PM 42.3°F5.7°C 38.3°F3.5°C 86% 7.3 mph WSW11.7 kmh WSW 11.4 mph18.3 kmh 29.92 in1013.2 mb 0.03 in0.8 mm 0.12 in3.0 mm 0.36 in9.1 mm
01:28 PM 42.1°F5.6°C 38.2°F3.4°C 86% 7.3 mph WSW11.7 kmh WSW 11.4 mph18.3 kmh 29.93 in1013.5 mb 0.03 in0.8 mm 0.00 in0.0 mm 0.36 in9.1 mm
01:33 PM 41.9°F5.5°C 38.0°F3.3°C 86% 6.8 mph NNW10.9 kmh NNW 8.5 mph13.7 kmh 29.93 in1013.5 mb 0.02 in0.5 mm 0.00 in0.0 mm 0.36 in9.1 mm
01:38 PM 40.5°F4.7°C 36.6°F2.6°C 86% 12.2 mph NW19.6 kmh NW 13.2 mph21.2 kmh 29.94 in1013.9 mb 0.03 in0.8 mm 0.12 in3.0 mm 0.37 in9.4 mm
01:43 PM 39.2°F4.0°C 35.1°F1.7°C 85% 15.3 mph NNW24.6 kmh NNW 16.8 mph27.0 kmh 29.93 in1013.5 mb 0.06 in1.5 mm 0.36 in9.1 mm 0.40 in10.2 mm
01:48 PM 38.5°F3.6°C 34.4°F1.3°C 85% 12.5 mph NNW20.1 kmh NNW 16.8 mph27.0 kmh 29.94 in1013.9 mb 0.09 in2.3 mm 0.36 in9.1 mm 0.43 in10.9 mm
01:53 PM 38.2°F3.4°C 34.3°F1.3°C 86% 14.9 mph NW24.0 kmh NW 17.2 mph27.7 kmh 29.94 in1013.9 mb 0.09 in2.3 mm 0.00 in0.0 mm 0.44 in11.2 mm
01:58 PM 38.2°F3.4°C 34.3°F1.3°C 86% 9.8 mph NW15.8 kmh NW 17.2 mph27.7 kmh 29.94 in1013.9 mb 0.11 in2.8 mm 0.24 in6.1 mm 0.46 in11.7 mm
02:04 PM 38.2°F3.4°C 34.3°F1.3°C 86% 6.6 mph NW10.6 kmh NW 11.4 mph18.3 kmh 29.94 in1013.9 mb 0.12 in3.0 mm 0.01 in0.3 mm 0.47 in11.9 mm
02:09 PM 38.2°F3.4°C 34.3°F1.3°C 86% 5.4 mph NW8.7 kmh NW 10.3 mph16.6 kmh 29.93 in1013.5 mb 0.13 in3.3 mm 0.12 in3.0 mm 0.48 in12.2 mm
02:14 PM 38.2°F3.4°C 34.3°F1.3°C 86% 3.9 mph WSW6.3 kmh WSW 6.9 mph11.1 kmh 29.94 in1013.9 mb 0.13 in3.3 mm 0.00 in0.0 mm 0.48 in12.2 mm
02:19 PM 38.2°F3.4°C 34.3°F1.3°C 86% 2.0 mph WSW3.2 kmh WSW 6.3 mph10.1 kmh 29.94 in1013.9 mb 0.13 in3.3 mm 0.00 in0.0 mm 0.48 in12.2 mm
02:24 PM 38.3°F3.5°C 34.5°F1.4°C 86% 3.1 mph SSW5.0 kmh SSW 3.4 mph5.5 kmh 29.93 in1013.5 mb 0.12 in3.0 mm 0.00 in0.0 mm 0.48 in12.2 mm
02:28 PM 38.3°F3.5°C 34.5°F1.4°C 86% 2.5 mph SW4.0 kmh SW 3.4 mph5.5 kmh 29.94 in1013.9 mb 0.12 in3.0 mm 0.00 in0.0 mm 0.48 in12.2 mm
02:33 PM 38.3°F3.5°C 34.5°F1.4°C 86% 6.8 mph W10.9 kmh W 7.2 mph11.6 kmh 29.94 in1013.9 mb 0.11 in2.8 mm 0.00 in0.0 mm 0.48 in12.2 mm
02:38 PM 38.3°F3.5°C 34.5°F1.4°C 86% 2.5 mph SW4.0 kmh SW 7.2 mph11.6 kmh 29.93 in1013.5 mb 0.09 in2.3 mm 0.00 in0.0 mm 0.48 in12.2 mm
02:43 PM 38.5°F3.6°C 34.7°F1.5°C 86% 2.1 mph SW3.4 kmh SW 5.1 mph8.2 kmh 29.93 in1013.5 mb 0.07 in1.8 mm 0.00 in0.0 mm 0.48 in12.2 mm
02:48 PM 38.5°F3.6°C 34.7°F1.5°C 86% 2.5 mph SW4.0 kmh SW 2.9 mph4.7 kmh 29.93 in1013.5 mb 0.05 in1.3 mm 0.00 in0.0 mm 0.48 in12.2 mm
02:53 PM 38.5°F3.6°C 34.7°F1.5°C 86% 3.0 mph SW4.8 kmh SW 3.4 mph5.5 kmh 29.93 in1013.5 mb 0.03 in0.8 mm 0.00 in0.0 mm 0.48 in12.2 mm
02:58 PM 38.3°F3.5°C 34.5°F1.4°C 86% 2.6 mph SW4.2 kmh SW 3.6 mph5.8 kmh 29.94 in1013.9 mb 0.01 in0.3 mm 0.00 in0.0 mm 0.48 in12.2 mm
03:04 PM 38.3°F3.5°C 34.5°F1.4°C 86% 1.3 mph SW2.1 kmh SW 3.6 mph5.8 kmh 29.94 in1013.9 mb 0.01 in0.3 mm 0.00 in0.0 mm 0.48 in12.2 mm
03:09 PM 38.3°F3.5°C 34.5°F1.4°C 86% 1.6 mph NNE2.6 kmh NNE 2.2 mph3.5 kmh 29.94 in1013.9 mb 0.00 in0.0 mm 0.00 in0.0 mm 0.48 in12.2 mm
03:14 PM 38.3°F3.5°C 34.5°F1.4°C 86% 1.0 mph ENE1.6 kmh ENE 2.2 mph3.5 kmh 29.94 in1013.9 mb 0.00 in0.0 mm 0.00 in0.0 mm 0.48 in12.2 mm
03:19 PM 38.3°F3.5°C 34.5°F1.4°C 86% 1.0 mph SE1.6 kmh SE 1.6 mph2.6 kmh 29.94 in1013.9 mb 0.01 in0.3 mm 0.12 in3.0 mm 0.49 in12.4 mm
03:24 PM 38.2°F3.4°C 34.3°F1.3°C 86% Calm Calm 1.6 mph2.6 kmh 29.94 in1013.9 mb 0.01 in0.3 mm 0.00 in0.0 mm 0.49 in12.4 mm
03:29 PM 38.2°F3.4°C 34.3°F1.3°C 86% 1.5 mph WSW2.4 kmh WSW 1.8 mph2.9 kmh 29.94 in1013.9 mb 0.01 in0.3 mm 0.00 in0.0 mm 0.49 in12.4 mm
03:34 PM 38.0°F3.3°C 34.1°F1.2°C 86% 3.3 mph W5.3 kmh W 5.1 mph8.2 kmh 29.94 in1013.9 mb 0.03 in0.8 mm 0.24 in6.1 mm 0.51 in13.0 mm
03:39 PM 38.0°F3.3°C 34.1°F1.2°C 86% 2.5 mph SW4.0 kmh SW 5.1 mph8.2 kmh 29.94 in1013.9 mb 0.03 in0.8 mm 0.00 in0.0 mm 0.51 in13.0 mm
03:44 PM 38.2°F3.4°C 34.3°F1.3°C 86% 2.3 mph S3.7 kmh S 3.8 mph6.1 kmh 29.95 in1014.2 mb 0.03 in0.8 mm 0.00 in0.0 mm 0.51 in13.0 mm
03:49 PM 38.0°F3.3°C 34.1°F1.2°C 86% 2.0 mph SW3.2 kmh SW 3.8 mph6.1 kmh 29.95 in1014.2 mb 0.03 in0.8 mm 0.00 in0.0 mm 0.51 in13.0 mm
03:54 PM 38.0°F3.3°C 34.1°F1.2°C 86% 1.8 mph SW2.9 kmh SW 2.5 mph4.0 kmh 29.95 in1014.2 mb 0.04 in1.0 mm 0.12 in3.0 mm 0.52 in13.2 mm
03:58 PM 37.8°F3.2°C 33.9°F1.1°C 86% 3.3 mph S5.3 kmh S 3.8 mph6.1 kmh 29.95 in1014.2 mb 0.04 in1.0 mm 0.00 in0.0 mm 0.52 in13.2 mm
04:04 PM 37.8°F3.2°C 33.9°F1.1°C 86% 2.9 mph SSW4.7 kmh SSW 4.3 mph6.9 kmh 29.95 in1014.2 mb 0.04 in1.0 mm 0.00 in0.0 mm 0.52 in13.2 mm
04:09 PM 37.8°F3.2°C 33.9°F1.1°C 86% 2.0 mph WSW3.2 kmh WSW 4.3 mph6.9 kmh 29.95 in1014.2 mb 0.04 in1.0 mm 0.00 in0.0 mm 0.52 in13.2 mm
04:14 PM 37.6°F3.1°C 33.8°F1.0°C 86% Calm Calm 2.7 mph4.3 kmh 29.96 in1014.6 mb 0.05 in1.3 mm 0.12 in3.0 mm 0.53 in13.5 mm
04:19 PM 37.6°F3.1°C 33.8°F1.0°C 86% Calm Calm 2.5 mph4.0 kmh 29.96 in1014.6 mb 0.04 in1.0 mm 0.00 in0.0 mm 0.53 in13.5 mm
04:24 PM 37.4°F3.0°C 33.6°F0.9°C 86% 2.8 mph ESE4.5 kmh ESE 2.9 mph4.7 kmh 29.95 in1014.2 mb 0.05 in1.3 mm 0.12 in3.0 mm 0.54 in13.7 mm
04:29 PM 37.4°F3.0°C 33.6°F0.9°C 86% 3.1 mph ESE5.0 kmh ESE 3.4 mph5.5 kmh 29.96 in1014.6 mb 0.05 in1.3 mm 0.00 in0.0 mm 0.54 in13.7 mm
04:34 PM 37.3°F2.9°C 33.4°F0.8°C 86% 4.6 mph ENE7.4 kmh ENE 5.8 mph9.3 kmh 29.96 in1014.6 mb 0.03 in0.8 mm 0.00 in0.0 mm 0.54 in13.7 mm
04:39 PM 36.7°F2.6°C 32.9°F0.5°C 86% 8.3 mph ENE13.4 kmh ENE 9.8 mph15.8 kmh 29.96 in1014.6 mb 0.03 in0.8 mm 0.00 in0.0 mm 0.54 in13.7 mm
04:44 PM 36.2°F2.3°C 32.3°F0.2°C 86% 7.9 mph E12.7 kmh E 9.8 mph15.8 kmh 29.96 in1014.6 mb 0.04 in1.0 mm 0.12 in3.0 mm 0.55 in14.0 mm
04:49 PM 36.0°F2.2°C 32.1°F0.1°C 86% 3.7 mph E6.0 kmh E 9.2 mph14.8 kmh 29.96 in1014.6 mb 0.04 in1.0 mm 0.00 in0.0 mm 0.55 in14.0 mm
04:54 PM 35.8°F2.1°C 32.0°F0.0°C 86% 3.4 mph ESE5.5 kmh ESE 6.3 mph10.1 kmh 29.96 in1014.6 mb 0.04 in1.0 mm 0.00 in0.0 mm 0.56 in14.2 mm
04:59 PM 35.8°F2.1°C 32.0°F0.0°C 86% 0.2 mph ESE0.3 kmh ESE 4.7 mph7.6 kmh 29.97 in1014.9 mb 0.06 in1.5 mm 0.24 in6.1 mm 0.58 in14.7 mm
05:04 PM 35.6°F2.0°C 31.8°F-0.1°C 86% 2.3 mph S3.7 kmh S 4.7 mph7.6 kmh 29.97 in1014.9 mb 0.06 in1.5 mm 0.00 in0.0 mm 0.58 in14.7 mm
05:09 PM 35.6°F2.0°C 31.8°F-0.1°C 86% 2.5 mph S4.0 kmh S 3.1 mph5.0 kmh 29.97 in1014.9 mb 0.06 in1.5 mm 0.00 in0.0 mm 0.58 in14.7 mm
05:14 PM 35.6°F2.0°C 31.8°F-0.1°C 86% 4.4 mph SW7.1 kmh SW 5.1 mph8.2 kmh 29.96 in1014.6 mb 0.07 in1.8 mm 0.12 in3.0 mm 0.60 in15.2 mm
05:19 PM 35.6°F2.0°C 31.8°F-0.1°C 86% 3.9 mph SW6.3 kmh SW 5.1 mph8.2 kmh 29.96 in1014.6 mb 0.07 in1.8 mm 0.00 in0.0 mm 0.60 in15.2 mm
05:24 PM 35.5°F1.9°C 31.6°F-0.2°C 86% 2.7 mph SW4.3 kmh SW 4.3 mph6.9 kmh 29.96 in1014.6 mb 0.06 in1.5 mm 0.00 in0.0 mm 0.60 in15.2 mm
05:29 PM 35.3°F1.8°C 31.4°F-0.3°C 86% 3.0 mph WSW4.8 kmh WSW 3.4 mph5.5 kmh 29.97 in1014.9 mb 0.06 in1.5 mm 0.00 in0.0 mm 0.60 in15.2 mm
05:34 PM 35.1°F1.7°C 31.2°F-0.4°C 86% 3.3 mph SW5.3 kmh SW 5.1 mph8.2 kmh 29.97 in1014.9 mb 0.06 in1.5 mm 0.00 in0.0 mm 0.60 in15.2 mm
05:39 PM 34.9°F1.6°C 31.1°F-0.5°C 86% 4.1 mph SW6.6 kmh SW 8.5 mph13.7 kmh 29.97 in1014.9 mb 0.06 in1.5 mm 0.00 in0.0 mm 0.60 in15.2 mm
05:44 PM 34.6°F1.4°C 30.7°F-0.7°C 86% 5.7 mph SW9.2 kmh SW 8.5 mph13.7 kmh 29.97 in1014.9 mb 0.05 in1.3 mm 0.00 in0.0 mm 0.60 in15.2 mm
05:49 PM 34.2°F1.2°C 30.3°F-0.9°C 86% 5.4 mph SW8.7 kmh SW 7.2 mph11.6 kmh 29.96 in1014.6 mb 0.05 in1.3 mm 0.00 in0.0 mm 0.60 in15.2 mm
05:54 PM 34.0°F1.1°C 30.2°F-1.0°C 86% 6.3 mph SW10.1 kmh SW 8.5 mph13.7 kmh 29.96 in1014.6 mb 0.04 in1.0 mm 0.00 in0.0 mm 0.60 in15.2 mm
06:00 PM 33.8°F1.0°C 30.0°F-1.1°C 86% 5.6 mph SW9.0 kmh SW 8.5 mph13.7 kmh 29.96 in1014.6 mb 0.02 in0.5 mm 0.00 in0.0 mm 0.60 in15.2 mm
06:05 PM 33.5°F0.8°C 29.7°F-1.3°C 86% 4.9 mph SW7.9 kmh SW 6.7 mph10.8 kmh 29.96 in1014.6 mb 0.02 in0.5 mm 0.00 in0.0 mm 0.60 in15.2 mm
06:10 PM 33.5°F0.8°C 29.7°F-1.3°C 86% 3.0 mph SW4.8 kmh SW 6.7 mph10.8 kmh 29.96 in1014.6 mb 0.00 in0.0 mm 0.00 in0.0 mm 0.60 in15.2 mm
06:15 PM 33.5°F0.8°C 29.7°F-1.3°C 86% 4.8 mph SW7.7 kmh SW 6.3 mph10.1 kmh 29.96 in1014.6 mb 0.00 in0.0 mm 0.00 in0.0 mm 0.60 in15.2 mm
06:20 PM 33.3°F0.7°C 29.5°F-1.4°C 86% 6.7 mph SW10.8 kmh SW 6.9 mph11.1 kmh 29.96 in1014.6 mb 0.00 in0.0 mm 0.00 in0.0 mm 0.60 in15.2 mm
06:24 PM 33.3°F0.7°C 29.5°F-1.4°C 86% 4.7 mph SW7.6 kmh SW 6.9 mph11.1 kmh 29.96 in1014.6 mb 0.00 in0.0 mm 0.00 in0.0 mm 0.60 in15.2 mm
06:29 PM 33.1°F0.6°C 29.3°F-1.5°C 86% 4.7 mph SW7.6 kmh SW 7.8 mph12.6 kmh 29.97 in1014.9 mb 0.00 in0.0 mm 0.00 in0.0 mm 0.60 in15.2 mm
06:34 PM 33.1°F0.6°C 29.3°F-1.5°C 86% 6.2 mph SW10.0 kmh SW 7.8 mph12.6 kmh 29.97 in1014.9 mb 0.00 in0.0 mm 0.00 in0.0 mm 0.60 in15.2 mm
06:39 PM 32.9°F0.5°C 29.2°F-1.6°C 86% 6.1 mph SW9.8 kmh SW 7.6 mph12.2 kmh 29.97 in1014.9 mb 0.02 in0.5 mm 0.24 in6.1 mm 0.62 in15.7 mm
06:44 PM 32.9°F0.5°C 29.2°F-1.6°C 86% 5.5 mph SW8.9 kmh SW 7.6 mph12.2 kmh 29.98 in1015.2 mb 0.02 in0.5 mm 0.00 in0.0 mm 0.62 in15.7 mm
06:49 PM 32.9°F0.5°C 29.4°F-1.4°C 87% 5.8 mph SW9.3 kmh SW 6.7 mph10.8 kmh 29.98 in1015.2 mb 0.02 in0.5 mm 0.00 in0.0 mm 0.62 in15.7 mm
06:54 PM 32.8°F0.4°C 29.4°F-1.4°C 87% 6.1 mph SW9.8 kmh SW 7.2 mph11.6 kmh 29.97 in1014.9 mb 0.02 in0.5 mm 0.00 in0.0 mm 0.62 in15.7 mm
07:00 PM 32.8°F0.4°C 29.4°F-1.4°C 87% 4.0 mph SW6.4 kmh SW 7.6 mph12.2 kmh 29.96 in1014.6 mb 0.02 in0.5 mm 0.00 in0.0 mm 0.62 in15.7 mm
07:05 PM 32.8°F0.4°C 29.4°F-1.4°C 87% 3.1 mph SW5.0 kmh SW 7.6 mph12.2 kmh 29.95 in1014.2 mb 0.02 in0.5 mm 0.00 in0.0 mm 0.62 in15.7 mm
07:10 PM 32.8°F0.4°C 29.6°F-1.3°C 88% 0.8 mph SSE1.3 kmh SSE 4.0 mph6.4 kmh 29.96 in1014.6 mb 0.02 in0.5 mm 0.00 in0.0 mm 0.62 in15.7 mm
07:15 PM 32.8°F0.4°C 29.6°F-1.3°C 88% 3.9 mph W6.3 kmh W 4.3 mph6.9 kmh 29.96 in1014.6 mb 0.02 in0.5 mm 0.00 in0.0 mm 0.62 in15.7 mm
07:20 PM 32.8°F0.4°C 29.6°F-1.3°C 88% 5.8 mph WSW9.3 kmh WSW 6.7 mph10.8 kmh 29.97 in1014.9 mb 0.02 in0.5 mm 0.00 in0.0 mm 0.62 in15.7 mm
07:25 PM 32.9°F0.5°C 29.8°F-1.2°C 88% 5.8 mph SSW9.3 kmh SSW 7.6 mph12.2 kmh 29.96 in1014.6 mb 0.02 in0.5 mm 0.00 in0.0 mm 0.62 in15.7 mm
07:30 PM 32.9°F0.5°C 29.8°F-1.2°C 88% 3.3 mph SSW5.3 kmh SSW 7.6 mph12.2 kmh 29.96 in1014.6 mb 0.02 in0.5 mm 0.00 in0.0 mm 0.62 in15.7 mm
07:35 PM 32.8°F0.4°C 29.6°F-1.3°C 88% 5.2 mph SW8.4 kmh SW 6.0 mph9.7 kmh 29.97 in1014.9 mb 0.00 in0.0 mm 0.00 in0.0 mm 0.62 in15.7 mm
07:40 PM 32.8°F0.4°C 29.6°F-1.3°C 88% 4.9 mph SW7.9 kmh SW 6.9 mph11.1 kmh 29.97 in1014.9 mb 0.00 in0.0 mm 0.00 in0.0 mm 0.62 in15.7 mm
07:45 PM 32.8°F0.4°C 29.6°F-1.3°C 88% 3.6 mph SW5.8 kmh SW 6.9 mph11.1 kmh 29.96 in1014.6 mb 0.00 in0.0 mm 0.00 in0.0 mm 0.62 in15.7 mm
07:50 PM 32.8°F0.4°C 29.6°F-1.3°C 88% 3.1 mph SW5.0 kmh SW 4.3 mph6.9 kmh 29.96 in1014.6 mb 0.00 in0.0 mm 0.00 in0.0 mm 0.62 in15.7 mm
07:54 PM 32.8°F0.4°C 29.6°F-1.3°C 88% 3.9 mph SW6.3 kmh SW 4.3 mph6.9 kmh 29.96 in1014.6 mb 0.00 in0.0 mm 0.00 in0.0 mm 0.62 in15.7 mm
08:00 PM 32.8°F0.4°C 29.6°F-1.3°C 88% 4.9 mph SW7.9 kmh SW 5.6 mph9.0 kmh 29.96 in1014.6 mb 0.00 in0.0 mm 0.00 in0.0 mm 0.62 in15.7 mm
08:05 PM 32.8°F0.4°C 29.6°F-1.3°C 88% 4.1 mph SW6.6 kmh SW 6.9 mph11.1 kmh 29.96 in1014.6 mb 0.00 in0.0 mm 0.00 in0.0 mm 0.62 in15.7 mm
08:10 PM 32.8°F0.4°C 29.6°F-1.3°C 88% 6.6 mph WSW10.6 kmh WSW 6.9 mph11.1 kmh 29.96 in1014.6 mb 0.00 in0.0 mm 0.00 in0.0 mm 0.62 in15.7 mm
08:15 PM 32.9°F0.5°C 29.8°F-1.2°C 88% 8.7 mph SW14.0 kmh SW 10.5 mph16.9 kmh 29.96 in1014.6 mb 0.00 in0.0 mm 0.00 in0.0 mm 0.62 in15.7 mm
08:20 PM 32.8°F0.4°C 29.6°F-1.3°C 88% 9.1 mph SW14.6 kmh SW 10.5 mph16.9 kmh 29.97 in1014.9 mb 0.00 in0.0 mm 0.00 in0.0 mm 0.62 in15.7 mm
08:25 PM 32.8°F0.4°C 29.6°F-1.3°C 88% 9.1 mph SW14.6 kmh SW 10.7 mph17.2 kmh 29.96 in1014.6 mb 0.00 in0.0 mm 0.00 in0.0 mm 0.62 in15.7 mm
08:30 PM 32.8°F0.4°C 29.6°F-1.3°C 88% 10.6 mph SW17.1 kmh SW 12.8 mph20.6 kmh 29.96 in1014.6 mb 0.00 in0.0 mm 0.00 in0.0 mm 0.62 in15.7 mm
08:35 PM 32.8°F0.4°C 29.9°F-1.2°C 89% 8.9 mph WSW14.3 kmh WSW 12.8 mph20.6 kmh 29.96 in1014.6 mb 0.00 in0.0 mm 0.00 in0.0 mm 0.62 in15.7 mm
08:40 PM 32.8°F0.4°C 29.9°F-1.2°C 89% 9.5 mph WSW15.3 kmh WSW 12.1 mph19.5 kmh 29.97 in1014.9 mb 0.00 in0.0 mm 0.00 in0.0 mm 0.62 in15.7 mm
08:45 PM 32.8°F0.4°C 29.9°F-1.2°C 89% 11.8 mph SW19.0 kmh SW 15.0 mph24.1 kmh 29.97 in1014.9 mb 0.00 in0.0 mm 0.00 in0.0 mm 0.62 in15.7 mm
08:50 PM 32.8°F0.4°C 29.9°F-1.2°C 89% 10.8 mph SW17.4 kmh SW 15.0 mph24.1 kmh 29.97 in1014.9 mb 0.00 in0.0 mm 0.00 in0.0 mm 0.62 in15.7 mm
08:55 PM 32.8°F0.4°C 29.9°F-1.2°C 89% 10.1 mph SW16.3 kmh SW 13.0 mph20.9 kmh 29.97 in1014.9 mb 0.00 in0.0 mm 0.00 in0.0 mm 0.62 in15.7 mm
09:00 PM 32.8°F0.4°C 29.9°F-1.2°C 89% 8.8 mph SW14.2 kmh SW 13.0 mph20.9 kmh 29.97 in1014.9 mb 0.00 in0.0 mm 0.00 in0.0 mm 0.62 in15.7 mm
09:05 PM 32.8°F0.4°C 29.9°F-1.2°C 89% 5.7 mph SW9.2 kmh SW 9.8 mph15.8 kmh 29.97 in1014.9 mb 0.00 in0.0 mm 0.00 in0.0 mm 0.62 in15.7 mm
09:10 PM 32.8°F0.4°C 29.9°F-1.2°C 89% 9.9 mph SW15.9 kmh SW 10.5 mph16.9 kmh 29.97 in1014.9 mb 0.00 in0.0 mm 0.00 in0.0 mm 0.62 in15.7 mm
09:15 PM 32.8°F0.4°C 29.9°F-1.2°C 89% 8.1 mph SW13.0 kmh SW 10.5 mph16.9 kmh 29.97 in1014.9 mb 0.00 in0.0 mm 0.00 in0.0 mm 0.62 in15.7 mm
09:20 PM 32.8°F0.4°C 29.9°F-1.2°C 89% 8.4 mph SW13.5 kmh SW 11.0 mph17.7 kmh 29.97 in1014.9 mb 0.00 in0.0 mm 0.00 in0.0 mm 0.62 in15.7 mm
09:25 PM 32.8°F0.4°C 29.9°F-1.2°C 89% 10.0 mph SSW16.1 kmh SSW 11.0 mph17.7 kmh 29.97 in1014.9 mb 0.00 in0.0 mm 0.00 in0.0 mm 0.62 in15.7 mm
09:30 PM 32.6°F0.3°C 29.7°F-1.3°C 89% 9.7 mph SW15.6 kmh SW 11.6 mph18.7 kmh 29.98 in1015.2 mb 0.00 in0.0 mm 0.00 in0.0 mm 0.62 in15.7 mm
09:35 PM 32.6°F0.3°C 29.7°F-1.3°C 89% 8.3 mph SW13.4 kmh SW 11.6 mph18.7 kmh 29.98 in1015.2 mb 0.00 in0.0 mm 0.00 in0.0 mm 0.62 in15.7 mm
09:40 PM 32.4°F0.2°C 29.5°F-1.4°C 89% 7.3 mph WSW11.7 kmh WSW 9.2 mph14.8 kmh 29.98 in1015.2 mb 0.00 in0.0 mm 0.00 in0.0 mm 0.62 in15.7 mm
09:45 PM 32.6°F0.3°C 29.7°F-1.3°C 89% 6.9 mph SW11.1 kmh SW 8.3 mph13.4 kmh 29.98 in1015.2 mb 0.00 in0.0 mm 0.00 in0.0 mm 0.62 in15.7 mm
09:50 PM 32.6°F0.3°C 29.7°F-1.3°C 89% 8.3 mph SW13.4 kmh SW 8.5 mph13.7 kmh 29.98 in1015.2 mb 0.00 in0.0 mm 0.00 in0.0 mm 0.62 in15.7 mm
09:55 PM 32.8°F0.4°C 29.9°F-1.2°C 89% 7.8 mph SW12.6 kmh SW 9.2 mph14.8 kmh 29.99 in1015.6 mb 0.00 in0.0 mm 0.00 in0.0 mm 0.62 in15.7 mm
10:01 PM 32.8°F0.4°C 29.9°F-1.2°C 89% 9.3 mph SW15.0 kmh SW 9.8 mph15.8 kmh 29.99 in1015.6 mb 0.00 in0.0 mm 0.00 in0.0 mm 0.62 in15.7 mm
10:06 PM 32.8°F0.4°C 29.9°F-1.2°C 89% 8.6 mph SW13.8 kmh SW 10.3 mph16.6 kmh 29.99 in1015.6 mb 0.00 in0.0 mm 0.00 in0.0 mm 0.62 in15.7 mm
10:10 PM 32.8°F0.4°C 29.9°F-1.2°C 89% 6.7 mph SW10.8 kmh SW 10.3 mph16.6 kmh 29.99 in1015.6 mb 0.00 in0.0 mm 0.00 in0.0 mm 0.62 in15.7 mm
10:15 PM 32.8°F0.4°C 29.9°F-1.2°C 89% 6.9 mph SW11.1 kmh SW 9.4 mph15.1 kmh 29.99 in1015.6 mb 0.00 in0.0 mm 0.00 in0.0 mm 0.62 in15.7 mm
10:20 PM 32.8°F0.4°C 29.9°F-1.2°C 89% 8.2 mph SW13.2 kmh SW 10.5 mph16.9 kmh 29.99 in1015.6 mb 0.00 in0.0 mm 0.00 in0.0 mm 0.62 in15.7 mm
10:25 PM 32.8°F0.4°C 29.9°F-1.2°C 89% 7.5 mph SW12.1 kmh SW 10.5 mph16.9 kmh 29.99 in1015.6 mb 0.00 in0.0 mm 0.00 in0.0 mm 0.62 in15.7 mm
10:30 PM 32.8°F0.4°C 29.9°F-1.2°C 89% 7.3 mph SW11.7 kmh SW 8.5 mph13.7 kmh 29.99 in1015.6 mb 0.00 in0.0 mm 0.00 in0.0 mm 0.62 in15.7 mm
10:35 PM 32.8°F0.4°C 29.9°F-1.2°C 89% 6.6 mph SW10.6 kmh SW 7.4 mph11.9 kmh 30.00 in1015.9 mb 0.00 in0.0 mm 0.00 in0.0 mm 0.62 in15.7 mm
10:40 PM 32.6°F0.3°C 29.7°F-1.3°C 89% 6.3 mph SW10.1 kmh SW 7.8 mph12.6 kmh 30.00 in1015.9 mb 0.00 in0.0 mm 0.00 in0.0 mm 0.62 in15.7 mm
10:45 PM 32.4°F0.2°C 29.5°F-1.4°C 89% 6.2 mph SW10.0 kmh SW 7.8 mph12.6 kmh 30.00 in1015.9 mb 0.00 in0.0 mm 0.00 in0.0 mm 0.62 in15.7 mm
10:50 PM 32.4°F0.2°C 29.9°F-1.2°C 90% 6.2 mph SW10.0 kmh SW 8.1 mph13.0 kmh 30.00 in1015.9 mb 0.00 in0.0 mm 0.00 in0.0 mm 0.62 in15.7 mm
10:55 PM 32.4°F0.2°C 29.9°F-1.2°C 90% 6.7 mph SW10.8 kmh SW 8.3 mph13.4 kmh 30.00 in1015.9 mb 0.00 in0.0 mm 0.00 in0.0 mm 0.62 in15.7 mm
11:01 PM 32.2°F0.1°C 29.4°F-1.4°C 89% 7.0 mph SW11.3 kmh SW 9.6 mph15.4 kmh 30.00 in1015.9 mb 0.00 in0.0 mm 0.00 in0.0 mm 0.62 in15.7 mm
11:06 PM 32.2°F0.1°C 29.7°F-1.3°C 90% 5.8 mph SW9.3 kmh SW 9.6 mph15.4 kmh 30.00 in1015.9 mb 0.00 in0.0 mm 0.00 in0.0 mm 0.62 in15.7 mm
11:11 PM 32.2°F0.1°C 29.7°F-1.3°C 90% 7.1 mph SW11.4 kmh SW 7.8 mph12.6 kmh 30.01 in1016.3 mb 0.00 in0.0 mm 0.00 in0.0 mm 0.62 in15.7 mm
11:16 PM 32.2°F0.1°C 29.4°F-1.4°C 89% 6.9 mph SW11.1 kmh SW 7.8 mph12.6 kmh 30.01 in1016.3 mb 0.00 in0.0 mm 0.00 in0.0 mm 0.62 in15.7 mm
11:21 PM 32.2°F0.1°C 29.7°F-1.3°C 90% 9.5 mph SSW15.3 kmh SSW 11.2 mph18.0 kmh 30.01 in1016.3 mb 0.00 in0.0 mm 0.00 in0.0 mm 0.62 in15.7 mm
11:26 PM 32.4°F0.2°C 29.9°F-1.2°C 90% 8.3 mph SW13.4 kmh SW 11.2 mph18.0 kmh 30.01 in1016.3 mb 0.00 in0.0 mm 0.00 in0.0 mm 0.62 in15.7 mm
11:31 PM 32.4°F0.2°C 29.9°F-1.2°C 90% 9.9 mph SSW15.9 kmh SSW 11.0 mph17.7 kmh 30.01 in1016.3 mb 0.00 in0.0 mm 0.00 in0.0 mm 0.62 in15.7 mm
11:35 PM 32.6°F0.3°C 30.0°F-1.1°C 90% 8.4 mph SW13.5 kmh SW 11.0 mph17.7 kmh 30.01 in1016.3 mb 0.00 in0.0 mm 0.00 in0.0 mm 0.62 in15.7 mm
11:40 PM 32.4°F0.2°C 29.9°F-1.2°C 90% 6.9 mph SSW11.1 kmh SSW 9.6 mph15.4 kmh 30.01 in1016.3 mb 0.00 in0.0 mm 0.00 in0.0 mm 0.62 in15.7 mm
11:45 PM 32.4°F0.2°C 29.5°F-1.4°C 89% 6.2 mph WSW10.0 kmh WSW 9.6 mph15.4 kmh 30.02 in1016.6 mb 0.00 in0.0 mm 0.00 in0.0 mm 0.62 in15.7 mm
11:50 PM 32.4°F0.2°C 29.5°F-1.4°C 89% 6.6 mph SW10.6 kmh SW 8.5 mph13.7 kmh 30.01 in1016.3 mb 0.00 in0.0 mm 0.00 in0.0 mm 0.62 in15.7 mm
11:55 PM 32.4°F0.2°C 29.5°F-1.4°C 89% 7.3 mph SW11.7 kmh SW 9.2 mph14.8 kmh 30.01 in1016.3 mb 0.00 in0.0 mm 0.00 in0.0 mm 0.62 in15.7 mm